Time;durP1;ratioP1;P1;durP2;ratioP2;P2;SDS_P1;SDS_P2;PMS_P1;PMS_P2;Temp;Humidity;BMP_temperature;BMP_pressure;BME280_temperature;BME280_humidity;BME280_pressure;Samples;Min_cycle;Max_cycle;Signal;HPM_P1;HPM_P2
2022/02/16 00:00:24;;;;;;;10.65;2.53;;;3.60;99.90;;;;;;5000916;28;20070;-70
2022/02/16 00:02:52;;;;;;;14.48;4.22;;;3.70;99.90;;;;;;5002845;28;20419;-69
2022/02/16 00:05:19;;;;;;;14.63;3.33;;;3.70;99.90;;;;;;4998575;28;20069;-65
2022/02/16 00:07:58;;;;;;;6.97;2.27;;;3.70;99.90;;;;;;3907626;28;10002472;-67
2022/02/16 00:10:25;;;;;;;4.82;2.78;;;3.80;99.90;;;;;;1722420;28;10001998;-67
2022/02/16 00:12:51;;;;;;;5.45;2.13;;;3.80;99.90;;;;;;4991982;28;20527;-65
2022/02/16 00:15:19;;;;;;;10.18;2.38;;;3.80;99.90;;;;;;4982652;28;20440;-67
2022/02/16 00:17:46;;;;;;;12.45;2.80;;;3.90;99.90;;;;;;4982215;28;20070;-67
2022/02/16 00:20:14;;;;;;;5.40;2.55;;;3.90;99.90;;;;;;5002116;28;20052;-67
2022/02/16 00:22:41;;;;;;;11.00;2.45;;;4.00;99.90;;;;;;5001125;28;20049;-66
2022/02/16 00:25:08;;;;;;;8.45;3.55;;;4.00;99.90;;;;;;5002725;28;20049;-71
2022/02/16 00:27:35;;;;;;;11.23;3.53;;;4.10;99.90;;;;;;4984091;28;20089;-68
2022/02/16 00:30:04;;;;;;;13.50;7.13;;;4.10;99.90;;;;;;4987872;28;20045;-65
2022/02/16 00:32:31;;;;;;;9.10;4.70;;;4.10;99.90;;;;;;5002188;28;20132;-71
2022/02/16 00:34:59;;;;;;;8.95;4.85;;;4.10;99.90;;;;;;5000815;28;20100;-67
2022/02/16 00:37:26;;;;;;;8.82;4.28;;;4.10;99.90;;;;;;4999680;28;20072;-66
2022/02/16 00:39:53;;;;;;;9.25;3.97;;;4.20;99.90;;;;;;5017963;28;20718;-71
2022/02/16 00:42:22;;;;;;;10.98;4.22;;;4.20;99.90;;;;;;5032014;28;20531;-70
2022/02/16 00:44:49;;;;;;;7.15;4.40;;;4.30;99.90;;;;;;5001761;28;20369;-65
2022/02/16 00:47:16;;;;;;;6.72;4.13;;;4.20;99.90;;;;;;4998768;28;20046;-66
2022/02/16 00:49:43;;;;;;;7.97;3.78;;;4.20;99.90;;;;;;5000445;28;20046;-66
2022/02/16 00:52:10;;;;;;;9.43;5.07;;;4.30;99.90;;;;;;5001532;28;20522;-66
2022/02/16 00:54:39;;;;;;;8.20;4.30;;;4.30;99.90;;;;;;5034278;28;20062;-70
2022/02/16 00:57:07;;;;;;;14.88;3.95;;;4.30;99.90;;;;;;5031126;28;20053;-70
2022/02/16 00:59:34;;;;;;;12.77;6.13;;;4.40;99.90;;;;;;5001926;28;20060;-66
2022/02/16 01:02:05;;;;;;;9.00;4.85;;;4.40;99.90;;;;;;5004397;28;20464;-68
2022/02/16 01:04:32;;;;;;;6.43;4.03;;;4.40;99.90;;;;;;5006863;28;20185;-67
2022/02/16 01:07:04;;;;;;;9.20;4.28;;;4.40;99.90;;;;;;5035657;28;20061;-68
2022/02/16 01:09:32;;;;;;;6.88;3.90;;;4.40;99.90;;;;;;5001979;28;20506;-66
2022/02/16 01:11:58;;;;;;;12.18;5.07;;;4.40;99.90;;;;;;5003763;28;20138;-68
2022/02/16 01:14:32;;;;;;;9.30;4.18;;;4.40;99.90;;;;;;5005067;28;20065;-71
2022/02/16 01:17:11;;;;;;;11.80;5.70;;;4.40;99.90;;;;;;5034356;28;20587;-69
2022/02/16 01:19:58;;;;;;;8.52;5.05;;;4.50;99.90;;;;;;5003329;28;20068;-68
2022/02/16 01:22:30;;;;;;;20.88;8.85;;;4.60;99.90;;;;;;5002010;28;20541;-66
2022/02/16 01:24:57;;;;;;;10.60;5.07;;;4.60;99.90;;;;;;5006419;28;20129;-70
2022/02/16 01:27:26;;;;;;;9.02;5.68;;;4.60;99.90;;;;;;5018235;28;20054;-67
2022/02/16 01:29:55;;;;;;;10.40;5.57;;;4.70;99.90;;;;;;5001131;28;20108;-67
2022/02/16 01:32:31;;;;;;;17.52;6.22;;;4.70;99.90;;;;;;5000164;28;20053;-66
2022/02/16 01:34:59;;;;;;;7.78;5.13;;;4.70;99.90;;;;;;5006056;28;20073;-69
2022/02/16 01:37:28;;;;;;;11.48;5.07;;;4.70;99.90;;;;;;4997396;28;20049;-66
2022/02/16 01:39:56;;;;;;;9.18;4.47;;;4.70;99.90;;;;;;4999212;28;20054;-67
2022/02/16 01:42:24;;;;;;;8.48;5.78;;;4.70;99.90;;;;;;4980666;28;20764;-65
2022/02/16 01:45:14;;;;;;;9.66;5.42;;;4.70;99.90;;;;;;4431824;28;10001494;-67
2022/02/16 01:47:41;;;;;;;10.63;5.88;;;4.70;99.90;;;;;;2062206;28;10002225;-67
2022/02/16 01:50:09;;;;;;;9.85;5.88;;;4.80;99.90;;;;;;4982462;28;20085;-68
2022/02/16 01:52:36;;;;;;;6.82;4.45;;;4.80;99.90;;;;;;5015377;28;20066;-67
2022/02/16 01:55:04;;;;;;;10.38;5.53;;;4.80;99.90;;;;;;4983429;28;20977;-67
2022/02/16 01:57:37;;;;;;;8.45;4.93;;;4.80;99.90;;;;;;4980247;28;20149;-66
2022/02/16 02:00:09;;;;;;;8.15;5.82;;;4.80;99.90;;;;;;4981513;28;20047;-66
2022/02/16 02:02:47;;;;;;;11.38;5.78;;;4.80;99.90;;;;;;5015909;28;20042;-67
2022/02/16 02:05:28;;;;;;;6.72;5.65;;;4.80;99.90;;;;;;4981116;28;20856;-67
2022/02/16 02:07:58;;;;;;;10.55;6.57;;;4.80;99.90;;;;;;4981594;28;20047;-68
2022/02/16 02:10:25;;;;;;;8.73;6.38;;;4.80;99.90;;;;;;4983113;28;20050;-67
2022/02/16 02:12:53;;;;;;;10.82;6.03;;;4.80;99.90;;;;;;4981949;28;20138;-65
2022/02/16 02:15:24;;;;;;;10.63;6.20;;;4.80;99.90;;;;;;4981332;28;20169;-67
2022/02/16 02:18:07;;;;;;;11.13;7.57;;;4.80;99.90;;;;;;4996539;28;20113;-66
2022/02/16 02:20:34;;;;;;;12.98;8.13;;;4.80;99.90;;;;;;5037224;28;20485;-66
2022/02/16 02:23:01;;;;;;;22.50;9.27;;;4.90;99.90;;;;;;5001290;28;20529;-65
2022/02/16 02:25:28;;;;;;;10.52;8.05;;;4.90;99.90;;;;;;5000664;28;20042;-67
2022/02/16 02:27:56;;;;;;;12.30;8.18;;;4.90;99.90;;;;;;5003245;28;20074;-66
2022/02/16 02:30:24;;;;;;;20.48;9.93;;;4.90;99.90;;;;;;5001196;28;20054;-66
2022/02/16 02:32:51;;;;;;;13.95;9.80;;;4.90;99.90;;;;;;5002590;28;20119;-66
2022/02/16 02:35:19;;;;;;;15.45;10.90;;;4.90;99.90;;;;;;5035893;28;20050;-66
2022/02/16 02:37:46;;;;;;;14.40;10.23;;;4.90;99.90;;;;;;5000020;28;20597;-65
2022/02/16 02:40:13;;;;;;;14.55;10.50;;;4.90;99.90;;;;;;5003375;28;20519;-65
2022/02/16 02:42:42;;;;;;;14.60;9.00;;;4.80;99.90;;;;;;5000152;28;20068;-65
2022/02/16 02:45:11;;;;;;;27.23;11.57;;;4.80;99.90;;;;;;5002731;28;20530;-65
2022/02/16 02:47:39;;;;;;;21.30;11.35;;;4.80;99.90;;;;;;5032497;28;20228;-65
2022/02/16 02:50:08;;;;;;;15.38;11.48;;;4.70;99.90;;;;;;5002435;28;20077;-67
2022/02/16 02:52:36;;;;;;;18.95;12.57;;;4.80;99.90;;;;;;5001804;28;20585;-65
2022/02/16 02:55:07;;;;;;;17.30;13.15;;;4.80;99.90;;;;;;5036654;28;20120;-68
2022/02/16 02:57:39;;;;;;;18.83;11.35;;;4.80;99.90;;;;;;5014637;28;20100;-69
2022/02/16 03:00:09;;;;;;;12.95;10.65;;;4.80;99.90;;;;;;5036344;28;20042;-67
2022/02/16 03:02:38;;;;;;;18.95;12.52;;;4.80;99.90;;;;;;5017587;28;20068;-67
2022/02/16 03:05:05;;;;;;;15.07;10.15;;;4.80;99.90;;;;;;4999631;28;20085;-66
2022/02/16 03:07:32;;;;;;;19.33;12.13;;;4.90;99.90;;;;;;5000945;28;20050;-66
2022/02/16 03:09:59;;;;;;;16.27;11.80;;;4.90;99.90;;;;;;5035211;28;20049;-69
2022/02/16 03:12:27;;;;;;;14.55;10.30;;;4.90;99.90;;;;;;5001000;28;20108;-67
2022/02/16 03:14:54;;;;;;;23.10;11.23;;;4.80;99.90;;;;;;4998478;28;20053;-67
2022/02/16 03:17:21;;;;;;;19.92;11.77;;;4.80;99.90;;;;;;5002755;28;20108;-66
2022/02/16 03:19:48;;;;;;;15.82;10.18;;;4.80;99.90;;;;;;4999995;28;20456;-66
2022/02/16 03:22:15;;;;;;;21.58;11.80;;;4.80;99.90;;;;;;4998415;28;20054;-67
2022/02/16 03:24:42;;;;;;;13.45;10.10;;;4.80;99.90;;;;;;5000128;28;20053;-65
2022/02/16 03:27:09;;;;;;;15.75;10.35;;;4.80;99.90;;;;;;5000711;28;20133;-69
2022/02/16 03:29:52;;;;;;;12.77;8.57;;;4.80;99.90;;;;;;4999349;28;20049;-66
2022/02/16 03:32:19;;;;;;;13.98;9.32;;;4.80;99.90;;;;;;5001825;28;20046;-67
2022/02/16 03:34:45;;;;;;;13.85;9.50;;;4.80;99.90;;;;;;5001266;28;20048;-68
2022/02/16 03:37:13;;;;;;;11.70;9.88;;;4.80;99.90;;;;;;5035916;28;20076;-67
2022/02/16 03:39:40;;;;;;;13.38;10.45;;;4.70;99.90;;;;;;5014626;28;20081;-70
2022/02/16 03:42:08;;;;;;;12.25;8.77;;;4.70;99.90;;;;;;4998976;28;20054;-68
2022/02/16 03:44:48;;;;;;;11.55;8.70;;;4.80;99.90;;;;;;2392332;28;10024285;-65
2022/02/16 03:47:18;;;;;;;14.73;8.50;;;4.80;99.90;;;;;;3604332;28;10001104;-66
2022/02/16 03:49:45;;;;;;;14.82;10.05;;;4.80;99.90;;;;;;5030293;28;20125;-66
2022/02/16 03:52:12;;;;;;;17.35;10.27;;;4.90;99.90;;;;;;4995400;28;20084;-67
2022/02/16 03:54:40;;;;;;;14.25;9.02;;;4.90;99.90;;;;;;5024735;28;20616;-67
2022/02/16 03:57:08;;;;;;;16.90;10.13;;;5.00;99.90;;;;;;5000769;28;20111;-70
2022/02/16 03:59:35;;;;;;;19.23;9.40;;;5.00;99.90;;;;;;5031378;28;20054;-69
2022/02/16 04:02:21;;;;;;;15.43;10.57;;;5.00;99.90;;;;;;5001889;28;20135;-65
2022/02/16 04:04:47;;;;;;;14.13;9.90;;;5.00;99.90;;;;;;5015540;28;20050;-66
2022/02/16 04:07:14;;;;;;;13.70;10.50;;;5.00;99.90;;;;;;5003539;28;20128;-68
2022/02/16 04:09:44;;;;;;;12.27;9.40;;;5.00;99.90;;;;;;5012162;28;20065;-66
2022/02/16 04:12:11;;;;;;;18.77;10.93;;;4.90;99.90;;;;;;5001325;28;20053;-68
2022/02/16 04:14:38;;;;;;;16.63;10.18;;;5.00;99.90;;;;;;4999991;28;20048;-68
2022/02/16 04:17:05;;;;;;;17.27;9.95;;;4.90;99.90;;;;;;5000971;28;20058;-66
2022/02/16 04:19:32;;;;;;;17.38;12.80;;;5.00;99.90;;;;;;4998737;28;20435;-66
2022/02/16 04:21:59;;;;;;;17.33;10.52;;;4.90;99.90;;;;;;4986120;28;20074;-66
2022/02/16 04:24:26;;;;;;;18.80;11.23;;;4.90;99.90;;;;;;5031846;28;20045;-69
2022/02/16 04:26:53;;;;;;;17.05;11.43;;;4.90;99.90;;;;;;5006837;28;20133;-66
2022/02/16 04:29:20;;;;;;;15.27;10.02;;;4.90;99.90;;;;;;4999116;28;20233;-65
2022/02/16 04:31:47;;;;;;;15.52;10.40;;;4.80;99.90;;;;;;4999435;28;20066;-66
2022/02/16 04:34:14;;;;;;;17.73;10.73;;;4.70;99.90;;;;;;5033278;28;20054;-67
2022/02/16 04:36:41;;;;;;;14.57;10.85;;;4.70;99.90;;;;;;5004351;28;20057;-69
2022/02/16 04:39:10;;;;;;;15.35;10.40;;;4.70;99.90;;;;;;5035926;28;20052;-66
2022/02/16 04:41:37;;;;;;;19.45;10.68;;;4.60;99.90;;;;;;5004799;28;20111;-65
2022/02/16 04:44:07;;;;;;;13.68;9.18;;;4.50;99.90;;;;;;5001800;28;20127;-65
2022/02/16 04:46:37;;;;;;;16.50;10.95;;;4.50;99.90;;;;;;5003191;28;20161;-66
2022/02/16 04:49:05;;;;;;;21.05;9.93;;;4.40;99.90;;;;;;5001204;28;20053;-67
2022/02/16 04:51:32;;;;;;;14.02;8.95;;;4.40;99.90;;;;;;5005131;28;20053;-71
2022/02/16 04:53:59;;;;;;;10.23;7.82;;;4.30;99.90;;;;;;5035939;28;20452;-66
2022/02/16 04:56:27;;;;;;;9.23;6.93;;;4.20;99.90;;;;;;4997538;28;20062;-66
2022/02/16 04:58:54;;;;;;;10.80;6.57;;;4.10;99.90;;;;;;5007103;28;20533;-66
2022/02/16 05:01:21;;;;;;;14.30;6.65;;;4.00;99.90;;;;;;5001180;28;20046;-67
2022/02/16 05:03:51;;;;;;;;;;;3.90;99.90;;;;;;5017430;28;20070;-65
2022/02/16 05:06:19;;;;;;;8.23;5.10;;;3.80;99.90;;;;;;5001760;28;20004;-69
2022/02/16 05:08:47;;;;;;;6.30;4.82;;;3.60;99.90;;;;;;5003306;28;20062;-72
2022/02/16 05:11:14;;;;;;;8.75;6.20;;;3.60;99.90;;;;;;5037492;28;20044;-66
2022/02/16 05:13:50;;;;;;;9.35;5.60;;;3.60;99.90;;;;;;5035370;28;20099;-68
2022/02/16 05:16:17;;;;;;;12.35;5.57;;;3.60;99.90;;;;;;5035290;28;20046;-66
2022/02/16 05:18:45;;;;;;;6.80;4.55;;;3.60;99.90;;;;;;5002672;28;20056;-66
2022/02/16 05:21:14;;;;;;;8.00;5.30;;;3.60;99.90;;;;;;5002502;28;20042;-68
2022/02/16 05:23:43;;;;;;;6.65;4.45;;;3.50;99.90;;;;;;5016558;28;20476;-71
2022/02/16 05:26:12;;;;;;;6.47;5.57;;;3.50;99.90;;;;;;5005775;28;20797;-66
2022/02/16 05:28:39;;;;;;;9.43;5.85;;;3.50;99.90;;;;;;5020825;28;20172;-68
2022/02/16 05:31:15;;;;;;;8.50;4.63;;;3.50;99.90;;;;;;5002979;28;20456;-71
2022/02/16 05:33:48;;;;;;;;;;;3.50;99.90;;;;;;5018951;28;20045;-69
2022/02/16 05:36:19;;;;;;;7.60;4.32;;;3.50;99.90;;;;;;5004710;28;19929;-67
2022/02/16 05:38:47;;;;;;;8.25;5.43;;;3.50;99.90;;;;;;5001200;28;20107;-66
2022/02/16 05:41:14;;;;;;;9.32;4.60;;;3.50;99.90;;;;;;5007859;28;20050;-69
2022/02/16 05:43:41;;;;;;;9.82;5.90;;;3.50;99.90;;;;;;5000120;28;20060;-71
2022/02/16 05:46:14;;;;;;;6.57;4.63;;;3.50;99.90;;;;;;5005609;28;20076;-68
2022/02/16 05:48:42;;;;;;;9.23;5.88;;;3.40;99.90;;;;;;5004515;28;20129;-67
2022/02/16 05:51:09;;;;;;;6.22;4.65;;;3.40;99.90;;;;;;5003833;28;20088;-67
2022/02/16 05:53:36;;;;;;;9.55;5.30;;;3.40;99.90;;;;;;4998098;28;20048;-66
2022/02/16 05:56:10;;;;;;;6.40;5.00;;;3.40;99.90;;;;;;4966715;28;20830;-67
2022/02/16 05:58:36;;;;;;;9.85;4.75;;;3.40;99.90;;;;;;4936325;28;20783;-67
2022/02/16 06:01:03;;;;;;;8.38;4.78;;;3.40;99.90;;;;;;1002200;28;10002008;-65
2022/02/16 06:03:38;;;;;;;8.55;4.05;;;3.40;99.90;;;;;;4991264;28;20114;-66
2022/02/16 06:06:06;;;;;;;7.10;2.47;;;3.40;99.90;;;;;;4991063;28;20053;-66
2022/02/16 06:08:34;;;;;;;4.18;2.22;;;3.30;99.90;;;;;;5035384;28;20058;-67
2022/02/16 06:11:02;;;;;;;2.45;1.73;;;3.20;99.90;;;;;;5030660;28;20054;-73
2022/02/16 06:13:32;;;;;;;3.92;1.77;;;3.10;99.90;;;;;;5032527;28;20057;-66
2022/02/16 06:15:59;;;;;;;6.10;2.42;;;3.10;99.90;;;;;;5001255;28;21229;-65
2022/02/16 06:18:26;;;;;;;1.88;1.58;;;3.00;99.90;;;;;;5014828;28;20108;-68
2022/02/16 06:20:55;;;;;;;2.92;2.35;;;2.80;99.90;;;;;;5016125;28;20038;-65
2022/02/16 06:23:22;;;;;;;3.17;2.00;;;2.80;99.90;;;;;;5003025;28;20054;-67
2022/02/16 06:25:49;;;;;;;4.78;2.47;;;2.70;99.90;;;;;;5011080;28;20563;-66
2022/02/16 06:28:17;;;;;;;3.42;2.60;;;2.70;99.90;;;;;;5031124;28;20549;-66
2022/02/16 06:30:51;;;;;;;7.38;3.58;;;2.80;99.90;;;;;;5012443;28;20058;-66
2022/02/16 06:33:19;;;;;;;8.18;3.67;;;2.80;99.90;;;;;;5032641;28;20808;-66
2022/02/16 06:35:47;;;;;;;13.18;4.03;;;2.90;99.90;;;;;;4998401;28;20716;-64
2022/02/16 06:38:15;;;;;;;7.65;4.20;;;2.90;99.90;;;;;;5002118;28;20212;-68
2022/02/16 06:40:43;;;;;;;10.57;5.75;;;3.00;99.90;;;;;;4996560;28;20137;-67
2022/02/16 06:43:14;;;;;;;13.63;4.97;;;3.00;99.90;;;;;;5034587;28;20053;-69
2022/02/16 06:45:42;;;;;;;11.68;5.63;;;3.10;99.90;;;;;;4998712;28;20058;-70
2022/02/16 06:48:11;;;;;;;11.77;5.78;;;3.20;99.90;;;;;;5000608;28;20080;-67
2022/02/16 06:50:38;;;;;;;10.98;6.28;;;3.20;99.90;;;;;;5000356;28;20045;-65
2022/02/16 06:53:08;;;;;;;8.82;5.22;;;3.30;99.90;;;;;;4999521;28;20050;-66
2022/02/16 06:55:36;;;;;;;14.18;5.95;;;3.30;99.90;;;;;;5010488;28;20481;-66
2022/02/16 06:58:04;;;;;;;11.98;6.53;;;3.30;99.90;;;;;;4995595;28;20042;-65
2022/02/16 07:00:31;;;;;;;13.73;6.68;;;3.30;99.90;;;;;;5031154;28;20046;-68
2022/02/16 07:02:59;;;;;;;11.27;6.00;;;3.40;99.90;;;;;;5000169;28;20062;-64
2022/02/16 07:05:32;;;;;;;19.60;7.95;;;3.40;99.90;;;;;;4996173;28;20441;-67
2022/02/16 07:08:02;;;;;;;;;;;3.40;99.90;;;;;;5014281;28;20061;-66
2022/02/16 07:10:29;;;;;;;13.95;6.10;;;3.40;99.90;;;;;;5001214;28;19929;-66
2022/02/16 07:12:57;;;;;;;18.83;8.30;;;3.40;99.90;;;;;;5014475;28;20041;-65
2022/02/16 07:15:24;;;;;;;12.30;7.13;;;3.50;99.90;;;;;;4985475;28;20058;-70
2022/02/16 07:17:52;;;;;;;13.00;5.93;;;3.50;99.90;;;;;;4992649;28;20393;-67
2022/02/16 07:20:32;;;;;;;12.85;5.72;;;3.60;99.90;;;;;;5009157;28;20105;-68
2022/02/16 07:23:00;;;;;;;22.35;6.55;;;3.60;99.90;;;;;;5007877;28;20065;-65
2022/02/16 07:25:27;;;;;;;10.38;6.97;;;3.60;99.90;;;;;;4998763;28;20047;-65
2022/02/16 07:28:15;;;;;;;13.25;5.72;;;3.60;99.90;;;;;;4988135;28;20054;-66
2022/02/16 07:30:45;;;;;;;15.18;6.22;;;3.60;99.90;;;;;;4977665;28;20089;-66
2022/02/16 07:33:14;;;;;;;20.33;6.85;;;3.60;99.90;;;;;;5013502;28;20061;-64
2022/02/16 07:35:42;;;;;;;15.45;5.75;;;3.70;99.90;;;;;;4975603;28;20046;-66
2022/02/16 07:38:09;;;;;;;18.95;7.93;;;3.70;99.90;;;;;;5013026;28;20591;-65
2022/02/16 07:40:36;;;;;;;10.23;5.80;;;3.70;99.90;;;;;;4994401;28;20050;-65
2022/02/16 07:43:03;;;;;;;14.77;6.03;;;3.70;99.90;;;;;;4986709;28;20046;-65
2022/02/16 07:45:53;;;;;;;12.52;5.35;;;3.80;99.90;;;;;;4910904;28;20042;-66
2022/02/16 07:48:31;;;;;;;9.83;6.00;;;3.80;99.90;;;;;;1551520;28;10003654;-68
2022/02/16 07:51:05;;;;;;;11.85;6.53;;;3.80;99.90;;;;;;4637478;28;10001266;-69
2022/02/16 07:53:54;;;;;;;17.52;7.03;;;3.80;99.90;;;;;;4986875;28;20392;-65
2022/02/16 07:56:22;;;;;;;14.70;6.63;;;3.90;99.90;;;;;;4998121;28;20045;-69
2022/02/16 07:58:49;;;;;;;15.30;7.07;;;3.90;99.90;;;;;;4996381;28;20105;-69
2022/02/16 08:01:16;;;;;;;9.80;7.22;;;3.80;99.90;;;;;;5030854;28;20054;-66
2022/02/16 08:03:43;;;;;;;17.10;6.57;;;3.90;99.90;;;;;;4997107;28;20072;-66
2022/02/16 08:06:14;;;;;;;18.73;7.18;;;3.90;99.90;;;;;;5001433;28;20104;-67
2022/02/16 08:08:41;;;;;;;12.73;6.78;;;3.90;99.90;;;;;;4999276;28;20061;-65
2022/02/16 08:11:10;;;;;;;12.95;5.47;;;4.00;99.90;;;;;;5014044;28;20492;-65
2022/02/16 08:13:37;;;;;;;16.15;7.68;;;4.00;99.90;;;;;;5011980;28;20140;-66
2022/02/16 08:16:31;;;;;;;12.18;6.25;;;4.00;99.90;;;;;;4996599;28;20045;-67
2022/02/16 08:19:05;;;;;;;19.02;6.30;;;4.10;99.90;;;;;;4999210;28;20050;-65
2022/02/16 08:21:35;;;;;;;19.67;7.53;;;4.10;99.90;;;;;;4994844;28;20065;-65
2022/02/16 08:24:04;;;;;;;12.93;8.00;;;4.10;99.90;;;;;;5032180;28;20054;-66
2022/02/16 08:26:32;;;;;;;13.98;8.70;;;4.20;99.90;;;;;;5014408;28;20054;-67
2022/02/16 08:28:59;;;;;;;11.65;8.25;;;4.20;99.90;;;;;;5000022;28;20049;-67
2022/02/16 08:31:26;;;;;;;14.07;7.03;;;4.30;99.90;;;;;;5030691;28;20081;-67
2022/02/16 08:34:08;;;;;;;17.95;7.72;;;4.30;99.90;;;;;;4998341;28;20045;-65
2022/02/16 08:36:48;;;;;;;13.63;7.53;;;4.30;99.90;;;;;;5030326;28;20108;-64
2022/02/16 08:39:15;;;;;;;16.95;8.05;;;4.20;99.90;;;;;;5000524;28;20423;-66
2022/02/16 08:41:42;;;;;;;18.35;7.45;;;4.20;99.90;;;;;;4997422;28;20141;-65
2022/02/16 08:44:09;;;;;;;12.32;7.38;;;4.20;99.90;;;;;;5000970;28;20050;-65
2022/02/16 08:46:37;;;;;;;13.90;6.18;;;4.20;99.90;;;;;;4997966;28;20042;-67
2022/02/16 08:49:04;;;;;;;14.00;5.72;;;4.30;99.90;;;;;;5001947;28;20073;-68
2022/02/16 08:51:31;;;;;;;14.07;7.07;;;4.20;99.90;;;;;;4995551;28;20468;-66
2022/02/16 08:53:59;;;;;;;17.60;6.20;;;4.20;99.90;;;;;;5001532;28;20124;-68
2022/02/16 08:56:29;;;;;;;11.80;6.32;;;4.30;99.90;;;;;;4997628;28;20132;-68
2022/02/16 08:58:57;;;;;;;14.48;6.22;;;4.30;99.90;;;;;;4989065;28;20084;-65
2022/02/16 09:01:25;;;;;;;21.17;7.47;;;4.30;99.90;;;;;;4999906;28;20142;-68
2022/02/16 09:03:52;;;;;;;10.90;5.85;;;4.30;99.90;;;;;;4999890;28;20785;-69
2022/02/16 09:06:19;;;;;;;21.88;7.30;;;4.30;99.90;;;;;;4995299;28;20176;-65
2022/02/16 09:08:46;;;;;;;12.73;5.30;;;4.20;99.90;;;;;;4999975;28;20131;-65
2022/02/16 09:11:12;;;;;;;16.33;6.72;;;4.20;99.90;;;;;;4998336;28;20574;-68
2022/02/16 09:13:39;;;;;;;16.02;6.57;;;4.20;99.90;;;;;;4998678;28;20471;-66
2022/02/16 09:16:06;;;;;;;11.38;5.78;;;4.10;99.90;;;;;;4998446;28;20136;-66
2022/02/16 09:18:33;;;;;;;9.68;6.43;;;4.00;99.90;;;;;;4998867;28;20049;-68
2022/02/16 09:21:05;;;;;;;10.50;5.60;;;4.00;99.90;;;;;;5002127;28;20573;-69
2022/02/16 09:23:34;;;;;;;11.70;6.00;;;4.00;99.90;;;;;;5000972;28;20092;-67
2022/02/16 09:26:05;;;;;;;11.00;6.28;;;4.00;99.90;;;;;;4997627;28;20346;-67
2022/02/16 09:28:34;;;;;;;13.25;5.97;;;4.00;99.90;;;;;;5000758;28;20069;-66
2022/02/16 09:31:02;;;;;;;19.55;6.03;;;4.00;99.90;;;;;;5001991;28;20050;-65
2022/02/16 09:33:30;;;;;;;17.50;5.97;;;4.10;99.90;;;;;;5000432;28;20500;-65
2022/02/16 09:35:57;;;;;;;17.25;5.45;;;4.10;99.90;;;;;;5003158;28;20062;-65
2022/02/16 09:38:24;;;;;;;14.18;6.30;;;4.10;99.90;;;;;;5002475;28;20484;-68
2022/02/16 09:40:53;;;;;;;9.40;5.75;;;4.10;99.90;;;;;;5001687;28;20133;-69
2022/02/16 09:43:24;;;;;;;12.52;5.25;;;4.10;99.90;;;;;;5002925;28;20058;-73
2022/02/16 09:45:55;;;;;;;17.52;6.82;;;4.10;99.90;;;;;;5001175;28;20042;-68
2022/02/16 09:48:22;;;;;;;;;;;4.10;99.90;;;;;;4999358;28;20462;-73
2022/02/16 09:50:51;;;;;;;14.55;6.57;;;4.10;99.90;;;;;;4996027;28;20290;-66
2022/02/16 09:53:29;;;;;;;12.73;4.88;;;4.20;99.90;;;;;;4957917;28;20855;-65
2022/02/16 09:56:17;;;;;;;9.43;4.20;;;4.20;99.90;;;;;;4194381;28;10002065;-67
2022/02/16 09:58:44;;;;;;;10.63;4.63;;;4.30;99.90;;;;;;1720826;28;10002118;-66
2022/02/16 10:01:13;;;;;;;11.90;4.78;;;4.30;99.90;;;;;;5002083;28;20055;-68
2022/02/16 10:04:09;;;;;;;15.65;5.22;;;4.20;99.90;;;;;;5004301;28;20492;-71
2022/02/16 10:06:38;;;;;;;13.15;5.35;;;4.20;99.90;;;;;;5000735;28;20475;-67
2022/02/16 10:09:06;;;;;;;11.63;4.63;;;4.20;99.90;;;;;;5002926;28;20054;-69
2022/02/16 10:11:34;;;;;;;8.65;3.97;;;4.20;99.90;;;;;;4999020;28;20367;-67
2022/02/16 10:14:20;;;;;;;11.43;5.65;;;4.30;99.90;;;;;;5004123;28;20073;-74
2022/02/16 10:16:47;;;;;;;9.98;5.07;;;4.30;99.90;;;;;;5000382;28;20479;-65
2022/02/16 10:19:14;;;;;;;11.95;5.63;;;4.30;99.90;;;;;;4999802;28;20049;-66
2022/02/16 10:22:07;;;;;;;12.27;5.57;;;4.30;99.90;;;;;;5000026;28;20480;-67
2022/02/16 10:24:35;;;;;;;10.73;4.20;;;4.40;99.90;;;;;;4995087;28;20058;-67
2022/02/16 10:27:03;;;;;;;9.07;4.05;;;4.50;99.90;;;;;;5002204;28;20038;-67
2022/02/16 10:29:35;;;;;;;8.00;4.80;;;4.50;99.90;;;;;;5001534;28;20050;-70
2022/02/16 10:32:03;;;;;;;12.82;4.32;;;4.60;99.90;;;;;;4998707;28;20050;-70
2022/02/16 10:34:55;;;;;;;12.10;3.60;;;4.80;99.90;;;;;;5002625;28;20500;-72
2022/02/16 10:37:35;;;;;;;11.23;3.88;;;4.80;99.90;;;;;;5001167;28;20420;-69
2022/02/16 10:40:11;;;;;;;8.15;5.22;;;4.90;99.90;;;;;;5000410;28;20060;-67
2022/02/16 10:42:59;;;;;;;16.00;4.03;;;4.90;99.90;;;;;;5000425;28;20132;-68
2022/02/16 10:45:29;;;;;;;7.55;4.38;;;4.80;99.90;;;;;;5001708;28;20050;-66
2022/02/16 10:48:02;;;;;;;5.65;2.72;;;4.90;99.90;;;;;;4982951;28;20213;-67
2022/02/16 10:50:34;;;;;;;8.18;3.88;;;4.80;99.90;;;;;;4983765;28;20112;-65
2022/02/16 10:53:09;;;;;;;10.65;4.53;;;4.80;99.90;;;;;;4995789;28;20132;-69
2022/02/16 10:55:50;;;;;;;13.40;4.72;;;4.80;99.90;;;;;;4979883;28;20136;-67
2022/02/16 10:58:20;;;;;;;8.55;3.65;;;4.80;99.90;;;;;;4983765;28;20149;-65
2022/02/16 11:00:50;;;;;;;12.30;4.10;;;4.90;99.90;;;;;;4984726;28;20171;-69
2022/02/16 11:03:32;;;;;;;17.10;4.90;;;4.90;99.90;;;;;;4984477;28;20047;-68
2022/02/16 11:06:05;;;;;;;9.98;3.00;;;4.90;99.90;;;;;;4982073;28;20094;-67
2022/02/16 11:08:33;;;;;;;12.38;4.28;;;5.00;99.90;;;;;;4983032;28;20049;-70
2022/02/16 11:11:23;;;;;;;8.02;3.88;;;5.10;99.90;;;;;;4983454;28;20066;-67
2022/02/16 11:13:58;;;;;;;10.52;3.33;;;5.10;99.90;;;;;;4981893;28;20050;-65
2022/02/16 11:16:27;;;;;;;12.48;3.53;;;5.10;99.90;;;;;;4983120;28;20047;-71
2022/02/16 11:18:59;;;;;;;8.82;2.78;;;5.00;99.90;;;;;;4982118;28;20046;-66
2022/02/16 11:21:30;;;;;;;8.18;2.72;;;5.00;99.90;;;;;;4982333;28;20046;-66
2022/02/16 11:23:59;;;;;;;8.77;2.50;;;5.00;99.90;;;;;;5002759;28;20054;-68
2022/02/16 11:26:41;;;;;;;9.95;2.55;;;5.00;99.90;;;;;;4998768;28;20077;-67
2022/02/16 11:29:27;;;;;;;11.80;3.55;;;5.00;99.90;;;;;;5001695;28;20417;-65
2022/02/16 11:32:01;;;;;;;10.43;3.20;;;4.90;99.90;;;;;;5002038;28;20121;-68
2022/02/16 11:34:28;;;;;;;14.02;3.58;;;4.80;99.90;;;;;;4999804;28;20092;-68
2022/02/16 11:37:02;;;;;;;14.32;3.75;;;4.80;99.90;;;;;;5001659;28;20049;-69
2022/02/16 11:39:49;;;;;;;11.77;3.17;;;4.80;99.90;;;;;;4998794;28;20104;-65
2022/02/16 11:42:19;;;;;;;11.48;3.03;;;4.90;99.90;;;;;;4999963;28;20132;-64
2022/02/16 11:44:52;;;;;;;9.93;2.40;;;4.90;99.90;;;;;;5001921;28;20045;-67
2022/02/16 11:47:35;;;;;;;9.80;2.50;;;4.90;99.90;;;;;;4984646;28;20042;-67
2022/02/16 11:50:02;;;;;;;17.70;3.35;;;5.00;99.90;;;;;;4981982;28;20058;-64
2022/02/16 11:52:34;;;;;;;8.68;2.40;;;4.90;99.90;;;;;;5000655;28;20042;-65
2022/02/16 11:55:02;;;;;;;9.55;2.40;;;4.90;99.90;;;;;;5001746;28;20424;-65
2022/02/16 11:57:31;;;;;;;10.00;2.63;;;4.90;99.90;;;;;;5000452;28;20061;-66
2022/02/16 12:00:08;;;;;;;16.92;3.10;;;4.90;99.90;;;;;;5000856;28;20096;-65
2022/02/16 12:02:59;;;;;;;8.55;2.58;;;4.90;99.90;;;;;;5001355;28;20112;-67
2022/02/16 12:05:55;;;;;;;15.35;3.35;;;5.00;99.90;;;;;;4996166;28;20046;-65
2022/02/16 12:08:48;;;;;;;8.88;3.03;;;5.00;99.90;;;;;;4999581;28;20076;-68
2022/02/16 12:11:30;;;;;;;7.60;1.98;;;5.00;99.90;;;;;;5000485;28;20136;-65
2022/02/16 12:14:15;;;;;;;11.60;2.67;;;5.00;99.90;;;;;;4999753;28;20061;-64
2022/02/16 12:16:45;;;;;;;20.75;3.38;;;5.00;99.90;;;;;;5001491;28;20073;-67
2022/02/16 12:19:19;;;;;;;7.53;2.70;;;5.00;99.90;;;;;;5001964;28;20066;-64
2022/02/16 12:21:51;;;;;;;10.65;2.70;;;5.00;99.90;;;;;;4991931;28;20472;-66
2022/02/16 12:24:24;;;;;;;16.17;4.93;;;5.00;99.90;;;;;;4906605;28;21987;-66
2022/02/16 12:26:55;;;;;;;18.40;4.43;;;5.10;99.90;;;;;;1001109;28;10002025;-65
2022/02/16 12:29:32;;;;;;;13.27;3.78;;;5.10;99.90;;;;;;4979775;28;20360;-67
2022/02/16 12:32:14;;;;;;;11.60;4.32;;;5.10;99.90;;;;;;4996412;28;20088;-65
2022/02/16 12:34:43;;;;;;;17.75;4.63;;;5.10;99.90;;;;;;4990023;28;20077;-74
2022/02/16 12:37:18;;;;;;;11.68;3.67;;;5.10;99.90;;;;;;4994237;28;20149;-65
2022/02/16 12:39:57;;;;;;;12.45;4.50;;;5.00;99.90;;;;;;4999564;28;20184;-66
2022/02/16 12:42:32;;;;;;;13.65;3.97;;;4.90;99.90;;;;;;5000608;28;20128;-67
2022/02/16 12:44:59;;;;;;;10.00;4.15;;;4.80;99.90;;;;;;5002005;28;20484;-65
2022/02/16 12:47:26;;;;;;;10.20;4.00;;;4.80;99.90;;;;;;4996204;28;20195;-66
2022/02/16 12:49:54;;;;;;;13.60;5.60;;;4.70;99.90;;;;;;5000403;28;20045;-70
2022/02/16 12:52:27;;;;;;;13.23;6.25;;;4.70;99.90;;;;;;5002810;28;20143;-68
2022/02/16 12:54:54;;;;;;;13.25;4.80;;;4.70;99.90;;;;;;5001463;28;20073;-66
2022/02/16 12:57:27;;;;;;;11.18;5.85;;;4.60;99.90;;;;;;5004985;28;20184;-64
2022/02/16 13:03:04;;;;;;;14.75;6.38;;;4.60;99.90;;;;;;5002692;28;20064;-65
2022/02/16 13:05:43;;;;;;;11.88;5.32;;;4.70;99.90;;;;;;5002059;28;20053;-67
2022/02/16 13:08:12;;;;;;;13.50;6.10;;;4.70;99.90;;;;;;5003779;28;20046;-65